AirNav   Bose ProFlight Aviation Headset
 
 1432 users online  

3TA5 Blanco Landing Airport
Blanco, Texas, USA

GOING TO BLANCO?


FAA INFORMATION EFFECTIVE 08 NOVEMBER 2018

Location

FAA Identifier: 3TA5
Lat/Long: 30-07-20.8800N / 098-22-29.2200W
30-07.348000N / 098-22.487000W
30.1224667 / -98.3747833
(estimated)
Elevation: 1460 ft. / 445 m (estimated)
Variation: 07E (1985)
From city: 3 miles NE of BLANCO, TX
Time zone: UTC -6 (UTC -5 during Daylight Saving Time)
Zip code: 78606

Airport Operations

Airport use: Private use. Permission required prior to landing
Activation date: 03/1981
Control tower: no
ARTCC: HOUSTON CENTER
FSS: SAN ANGELO FLIGHT SERVICE STATION
Attendance: UNATNDD
Wind indicator: yes
Segmented circle: no

Airport Communications

CTAF: 122.9

Nearby radio navigation aids

VOR radial/distance  VOR name  Freq  Var
STVr098/17.9STONEWALL VORTAC113.8008E
SATr001/29.1SAN ANTONIO VORTAC116.8008E
RNDr348/36.5RANDOLPH VORTAC112.3005E

Airport Services

Runway Information

Runway 1/19

Dimensions: 3450 x 27 ft. / 1052 x 8 m
Surface: asphalt
RUNWAY 1  RUNWAY 19
Traffic pattern: leftleft

Airport Ownership and Management from official FAA records

Ownership: Privately-owned
Owner: THE LANDING P.O.A.
3238 HWY 281 N
BLANCO, TX 78606
Phone (512) 461-5158
OTR: 915-525-7792
Manager: BOARD OF DIRECTORS
3238 HWY 281 N
BLANCO, TX 78606
Phone (512) 918-8100

Airport Operational Statistics

Aircraft based on the field: 9
Single engine airplanes: 8
Helicopters: 1
    

Instrument Procedures

There are no published instrument procedures at 3TA5.

Some nearby airports with instrument procedures:

3R9 - Lakeway Airpark (24 nm NE)
T82 - Gillespie County Airport (29 nm W)
5C1 - Boerne Stage Field Airport (29 nm SW)
KHYI - San Marcos Regional Airport (30 nm SE)
KBAZ - New Braunfels Regional Airport (30 nm SE)
 
Loc | Ops | Rwys | IFR | FBO | Links
Com | Nav | Svcs | Stats | Notes


 
Area around 3TA5 (Blanco Landing Airport)
 
Road maps at: MapQuest Bing Google
 
Aerial photo
WARNING: Photo may not be current or correct
Aerial photo of 3TA5 (Blanco Landing Airport)
Photo taken 18-Jul-2017
looking south.

Do you have a better or more recent aerial photo of Blanco Landing Airport that you would like to share? If so, please send us your photo.

 
Sectional chart

 
Airport distance calculator
Flying to Blanco Landing Airport? Find the distance to fly.

From to 3TA5

Sunrise and sunset
Times for 16-Nov-2018
 Local
(UTC-6)
 Zulu
(UTC)
Morning civil twilight06:3512:35
Sunrise07:0113:01
Sunset17:3623:36
Evening civil twilight18:0100:01

Current date and time
Zulu (UTC)  16-Nov-2018 19:01:24
Local (UTC-6)  16-Nov-2018 13:01:24
 
METAR
KDZB 
24nm N 
161855Z AUTO 20005KT 10SM CLR 21/01 A3015 RMK AO2 T02080008
KT82 
29nm W 
161835Z AUTO 21007KT 10SM CLR 17/M01 A3016 RMK AO2 T01721015
K5C1 
29nm SW 
161835Z AUTO 21008KT 10SM CLR 16/00 A3018 RMK AO1
KBAZ 
30nm SE 
161851Z 22009KT 10SM CLR 20/01 A3015 RMK AO2 SLP208 T02000006
KHYI 
30nm SE 
161856Z 21006KT 10SM CLR 20/01 A3017 RMK AO2 SLP213 T02000006 $
KRYW 
31nm NE 
161855Z AUTO 19004KT 10SM CLR 20/02 A3015 RMK AO2 T02000016
KSAT 
36nm S 
161851Z 17009G14KT 140V200 10SM CLR 19/01 A3017 RMK AO2 SLP206 T01890006
KAUS 
36nm E 
161853Z 22010KT 10SM CLR 21/01 A3015 RMK AO2 SLP210 T02060011 $
KATT 
37nm E 
161851Z AUTO VRB05KT 10SM CLR 20/02 A3016 RMK AO2 SLP211 T02000017 $
KRND 
37nm S 
161756Z AUTO 18006KT 10SM CLR 18/00 A3019 RMK AO2 SLP223 T01801003 10180 20016 58015
TAF
KSAT 
36nm S 
161730Z 1618/1724 18005KT P6SM SCT250
KAUS 
36nm E 
161730Z 1618/1724 18006KT P6SM FEW250
KRND 
37nm S 
161000Z 1610/1716 24006KT 9999 SKC QNH3008INS BECMG 1708/1709 18003KT 9999 SCT020 QNH3008INS TX20/1621Z TN01/1612Z
NOTAMs
Click for the latest NOTAMs
NOTAMs are issued by the DoD/FAA and will open in a separate window not controlled by AirNav.

 

 
 

Would you like to see your business listed on this page?

 If your business provides an interesting product or service to pilots, flight crews, aircraft, or users of the Blanco Landing Airport, you should consider listing it here.  To start the listing process, click on the button below
 
Add a business
 

Other Pages about Blanco Landing Airport

Update a link
 
Copyright © AirNav, LLC. All rights reserved. Privacy Policy  Contact